Snook, Texas
Current Conditions -  °F | °C
As of 1:53 PM on Thursday 30 Oct 2014 (Local Time) from KCLL Reporting Station
Clear Clear  
Wind Chill: 74°   Ceiling: Unl
Heat Index: 74°   Visibility: 10mi
Dew Point: 49°   Wind: 0mph
Humidity: 41%   Direction: NA
Pressure: 30.1"   Gusts: NA
Location:  30.49°N, 96.46°W
Report Text: KCLL 301853Z 00000KT 10SM CLR 23/09 A3010 RMK AO2 SLP190 T02330094
Loading
Personal Weather Stations






























Interactive Weather Map New forecast layout! Learn more

10-Day Weather Forecast

Advertisements
Track Severe Weather on mobile